sensor_id;sensor_type;location;lat;lon;timestamp;P1;durP1;ratioP1;P2;durP2;ratioP2
43606;SDS011;29197;44.788;10.366;2023-03-01T00:01:35;25.00;;;18.85;;
43606;SDS011;29197;44.788;10.366;2023-03-01T00:04:24;25.80;;;19.05;;
43606;SDS011;29197;44.788;10.366;2023-03-01T00:07:14;25.10;;;18.47;;
43606;SDS011;29197;44.788;10.366;2023-03-01T00:10:02;25.83;;;19.27;;
43606;SDS011;29197;44.788;10.366;2023-03-01T00:12:51;24.20;;;18.58;;
43606;SDS011;29197;44.788;10.366;2023-03-01T00:15:41;25.33;;;18.00;;
43606;SDS011;29197;44.788;10.366;2023-03-01T00:18:30;23.88;;;16.92;;
43606;SDS011;29197;44.788;10.366;2023-03-01T00:21:19;21.73;;;16.23;;
43606;SDS011;29197;44.788;10.366;2023-03-01T00:24:09;21.92;;;15.65;;
43606;SDS011;29197;44.788;10.366;2023-03-01T00:26:58;20.45;;;14.50;;
43606;SDS011;29197;44.788;10.366;2023-03-01T00:29:46;18.97;;;13.90;;
43606;SDS011;29197;44.788;10.366;2023-03-01T00:32:36;18.33;;;12.80;;
43606;SDS011;29197;44.788;10.366;2023-03-01T00:35:25;18.42;;;13.20;;
43606;SDS011;29197;44.788;10.366;2023-03-01T00:38:13;17.50;;;12.02;;
43606;SDS011;29197;44.788;10.366;2023-03-01T00:41:05;16.90;;;12.70;;
43606;SDS011;29197;44.788;10.366;2023-03-01T00:43:54;18.85;;;12.90;;
43606;SDS011;29197;44.788;10.366;2023-03-01T00:46:42;15.27;;;11.23;;
43606;SDS011;29197;44.788;10.366;2023-03-01T00:49:32;18.73;;;13.32;;
43606;SDS011;29197;44.788;10.366;2023-03-01T00:52:21;16.90;;;11.93;;
43606;SDS011;29197;44.788;10.366;2023-03-01T00:55:09;16.70;;;12.30;;
43606;SDS011;29197;44.788;10.366;2023-03-01T00:57:59;14.45;;;10.57;;
43606;SDS011;29197;44.788;10.366;2023-03-01T01:00:47;16.15;;;11.80;;
43606;SDS011;29197;44.788;10.366;2023-03-01T01:03:36;17.38;;;12.35;;
43606;SDS011;29197;44.788;10.366;2023-03-01T01:06:26;16.63;;;11.57;;
43606;SDS011;29197;44.788;10.366;2023-03-01T01:09:17;19.23;;;11.93;;
43606;SDS011;29197;44.788;10.366;2023-03-01T01:12:05;15.82;;;11.30;;
43606;SDS011;29197;44.788;10.366;2023-03-01T01:14:54;16.17;;;10.98;;
43606;SDS011;29197;44.788;10.366;2023-03-01T01:17:43;18.57;;;12.67;;
43606;SDS011;29197;44.788;10.366;2023-03-01T01:20:31;15.75;;;12.02;;
43606;SDS011;29197;44.788;10.366;2023-03-01T01:23:21;15.65;;;10.85;;
43606;SDS011;29197;44.788;10.366;2023-03-01T01:26:11;15.02;;;11.25;;
43606;SDS011;29197;44.788;10.366;2023-03-01T01:29:01;15.32;;;11.60;;
43606;SDS011;29197;44.788;10.366;2023-03-01T01:31:51;15.82;;;10.95;;
43606;SDS011;29197;44.788;10.366;2023-03-01T01:34:40;15.45;;;11.40;;
43606;SDS011;29197;44.788;10.366;2023-03-01T01:37:28;14.20;;;10.55;;
43606;SDS011;29197;44.788;10.366;2023-03-01T01:40:20;14.05;;;10.35;;
43606;SDS011;29197;44.788;10.366;2023-03-01T01:43:09;15.63;;;10.83;;
43606;SDS011;29197;44.788;10.366;2023-03-01T01:46:06;16.15;;;11.10;;
43606;SDS011;29197;44.788;10.366;2023-03-01T01:49:04;15.03;;;10.70;;
43606;SDS011;29197;44.788;10.366;2023-03-01T01:51:56;15.20;;;11.57;;
43606;SDS011;29197;44.788;10.366;2023-03-01T01:54:50;15.07;;;10.63;;
43606;SDS011;29197;44.788;10.366;2023-03-01T01:57:45;16.83;;;11.85;;
43606;SDS011;29197;44.788;10.366;2023-03-01T02:00:36;16.90;;;12.18;;
43606;SDS011;29197;44.788;10.366;2023-03-01T02:03:26;14.27;;;10.80;;
43606;SDS011;29197;44.788;10.366;2023-03-01T02:06:21;15.27;;;11.15;;
43606;SDS011;29197;44.788;10.366;2023-03-01T02:09:15;16.03;;;10.77;;
43606;SDS011;29197;44.788;10.366;2023-03-01T02:12:08;16.67;;;12.10;;
43606;SDS011;29197;44.788;10.366;2023-03-01T02:14:58;16.48;;;11.95;;
43606;SDS011;29197;44.788;10.366;2023-03-01T02:17:46;16.20;;;11.35;;
43606;SDS011;29197;44.788;10.366;2023-03-01T02:20:35;22.73;;;14.90;;
43606;SDS011;29197;44.788;10.366;2023-03-01T02:23:36;19.10;;;13.13;;
43606;SDS011;29197;44.788;10.366;2023-03-01T02:26:27;20.83;;;13.85;;
43606;SDS011;29197;44.788;10.366;2023-03-01T02:29:21;19.98;;;13.68;;
43606;SDS011;29197;44.788;10.366;2023-03-01T02:32:10;19.20;;;13.57;;
43606;SDS011;29197;44.788;10.366;2023-03-01T02:35:00;21.88;;;15.30;;
43606;SDS011;29197;44.788;10.366;2023-03-01T02:37:53;22.13;;;14.13;;
43606;SDS011;29197;44.788;10.366;2023-03-01T02:40:43;20.92;;;13.05;;
43606;SDS011;29197;44.788;10.366;2023-03-01T02:43:32;20.35;;;14.88;;
43606;SDS011;29197;44.788;10.366;2023-03-01T02:46:23;21.50;;;12.77;;
43606;SDS011;29197;44.788;10.366;2023-03-01T02:49:18;17.88;;;12.43;;
43606;SDS011;29197;44.788;10.366;2023-03-01T02:55:22;17.83;;;12.00;;
43606;SDS011;29197;44.788;10.366;2023-03-01T02:58:11;17.20;;;12.20;;
43606;SDS011;29197;44.788;10.366;2023-03-01T03:00:59;17.30;;;12.18;;
43606;SDS011;29197;44.788;10.366;2023-03-01T03:03:49;16.45;;;11.90;;
43606;SDS011;29197;44.788;10.366;2023-03-01T03:06:38;17.00;;;12.37;;
43606;SDS011;29197;44.788;10.366;2023-03-01T03:09:26;17.67;;;13.30;;
43606;SDS011;29197;44.788;10.366;2023-03-01T03:12:15;18.97;;;13.70;;
43606;SDS011;29197;44.788;10.366;2023-03-01T03:15:03;16.83;;;12.40;;
43606;SDS011;29197;44.788;10.366;2023-03-01T03:17:55;16.40;;;11.60;;
43606;SDS011;29197;44.788;10.366;2023-03-01T03:20:47;17.55;;;13.43;;
43606;SDS011;29197;44.788;10.366;2023-03-01T03:23:39;17.45;;;12.77;;
43606;SDS011;29197;44.788;10.366;2023-03-01T03:26:29;15.90;;;12.38;;
43606;SDS011;29197;44.788;10.366;2023-03-01T03:29:18;16.75;;;11.82;;
43606;SDS011;29197;44.788;10.366;2023-03-01T03:32:07;16.47;;;11.30;;
43606;SDS011;29197;44.788;10.366;2023-03-01T03:34:55;17.17;;;12.65;;
43606;SDS011;29197;44.788;10.366;2023-03-01T03:37:45;24.38;;;16.20;;
43606;SDS011;29197;44.788;10.366;2023-03-01T03:41:00;19.58;;;14.60;;
43606;SDS011;29197;44.788;10.366;2023-03-01T03:43:50;18.00;;;12.95;;
43606;SDS011;29197;44.788;10.366;2023-03-01T03:46:38;19.65;;;13.93;;
43606;SDS011;29197;44.788;10.366;2023-03-01T03:49:27;16.60;;;12.18;;
43606;SDS011;29197;44.788;10.366;2023-03-01T03:52:15;20.05;;;14.23;;
43606;SDS011;29197;44.788;10.366;2023-03-01T03:55:06;17.42;;;12.55;;
43606;SDS011;29197;44.788;10.366;2023-03-01T03:57:57;19.25;;;12.90;;
43606;SDS011;29197;44.788;10.366;2023-03-01T04:00:49;17.52;;;12.98;;
43606;SDS011;29197;44.788;10.366;2023-03-01T04:03:39;17.33;;;12.75;;
43606;SDS011;29197;44.788;10.366;2023-03-01T04:06:28;17.90;;;12.53;;
43606;SDS011;29197;44.788;10.366;2023-03-01T04:09:17;19.08;;;13.23;;
43606;SDS011;29197;44.788;10.366;2023-03-01T04:12:07;17.65;;;12.90;;
43606;SDS011;29197;44.788;10.366;2023-03-01T04:14:55;17.33;;;12.82;;
43606;SDS011;29197;44.788;10.366;2023-03-01T04:17:45;21.50;;;14.20;;
43606;SDS011;29197;44.788;10.366;2023-03-01T04:20:34;20.90;;;14.67;;
43606;SDS011;29197;44.788;10.366;2023-03-01T04:23:23;20.60;;;14.13;;
43606;SDS011;29197;44.788;10.366;2023-03-01T04:26:12;20.88;;;14.63;;
43606;SDS011;29197;44.788;10.366;2023-03-01T04:29:02;19.30;;;14.30;;
43606;SDS011;29197;44.788;10.366;2023-03-01T04:31:50;18.75;;;13.15;;
43606;SDS011;29197;44.788;10.366;2023-03-01T04:34:39;17.23;;;12.33;;
43606;SDS011;29197;44.788;10.366;2023-03-01T04:37:28;18.55;;;13.18;;
43606;SDS011;29197;44.788;10.366;2023-03-01T04:40:16;20.27;;;14.77;;
43606;SDS011;29197;44.788;10.366;2023-03-01T04:43:05;18.77;;;13.55;;
43606;SDS011;29197;44.788;10.366;2023-03-01T04:45:55;18.00;;;12.98;;
43606;SDS011;29197;44.788;10.366;2023-03-01T04:48:49;19.08;;;12.63;;
43606;SDS011;29197;44.788;10.366;2023-03-01T04:51:37;19.58;;;13.90;;
43606;SDS011;29197;44.788;10.366;2023-03-01T04:54:26;17.17;;;12.07;;
43606;SDS011;29197;44.788;10.366;2023-03-01T04:57:14;17.77;;;12.55;;
43606;SDS011;29197;44.788;10.366;2023-03-01T05:00:03;17.17;;;12.27;;
43606;SDS011;29197;44.788;10.366;2023-03-01T05:03:08;18.10;;;12.77;;
43606;SDS011;29197;44.788;10.366;2023-03-01T05:05:57;15.82;;;11.52;;
43606;SDS011;29197;44.788;10.366;2023-03-01T05:08:47;17.35;;;11.52;;
43606;SDS011;29197;44.788;10.366;2023-03-01T05:11:35;17.37;;;11.77;;
43606;SDS011;29197;44.788;10.366;2023-03-01T05:14:24;16.25;;;11.25;;
43606;SDS011;29197;44.788;10.366;2023-03-01T05:17:12;19.42;;;13.48;;
43606;SDS011;29197;44.788;10.366;2023-03-01T05:20:02;16.13;;;11.60;;
43606;SDS011;29197;44.788;10.366;2023-03-01T05:22:55;16.75;;;11.85;;
43606;SDS011;29197;44.788;10.366;2023-03-01T05:25:46;16.88;;;11.98;;
43606;SDS011;29197;44.788;10.366;2023-03-01T05:28:35;17.50;;;12.15;;
43606;SDS011;29197;44.788;10.366;2023-03-01T05:31:24;16.70;;;12.32;;
43606;SDS011;29197;44.788;10.366;2023-03-01T05:34:13;15.07;;;11.13;;
43606;SDS011;29197;44.788;10.366;2023-03-01T05:37:03;20.42;;;14.10;;
43606;SDS011;29197;44.788;10.366;2023-03-01T05:39:51;17.17;;;13.07;;
43606;SDS011;29197;44.788;10.366;2023-03-01T05:42:40;22.75;;;14.63;;
43606;SDS011;29197;44.788;10.366;2023-03-01T05:45:29;18.25;;;12.98;;
43606;SDS011;29197;44.788;10.366;2023-03-01T05:48:19;18.47;;;13.17;;
43606;SDS011;29197;44.788;10.366;2023-03-01T05:51:07;17.73;;;12.90;;
43606;SDS011;29197;44.788;10.366;2023-03-01T05:53:57;18.23;;;13.43;;
43606;SDS011;29197;44.788;10.366;2023-03-01T05:56:45;18.58;;;13.40;;
43606;SDS011;29197;44.788;10.366;2023-03-01T05:59:34;18.15;;;12.45;;
43606;SDS011;29197;44.788;10.366;2023-03-01T06:02:23;18.58;;;12.70;;
43606;SDS011;29197;44.788;10.366;2023-03-01T06:05:12;16.08;;;12.65;;
43606;SDS011;29197;44.788;10.366;2023-03-01T06:08:01;17.43;;;12.20;;
43606;SDS011;29197;44.788;10.366;2023-03-01T06:10:51;17.85;;;12.60;;
43606;SDS011;29197;44.788;10.366;2023-03-01T06:13:40;16.33;;;11.73;;
43606;SDS011;29197;44.788;10.366;2023-03-01T06:16:29;17.30;;;12.30;;
43606;SDS011;29197;44.788;10.366;2023-03-01T06:19:18;21.37;;;14.27;;
43606;SDS011;29197;44.788;10.366;2023-03-01T06:22:06;23.60;;;14.80;;
43606;SDS011;29197;44.788;10.366;2023-03-01T06:24:55;18.17;;;12.63;;
43606;SDS011;29197;44.788;10.366;2023-03-01T06:27:45;18.70;;;12.57;;
43606;SDS011;29197;44.788;10.366;2023-03-01T06:30:35;18.00;;;12.77;;
43606;SDS011;29197;44.788;10.366;2023-03-01T06:33:23;18.17;;;13.40;;
43606;SDS011;29197;44.788;10.366;2023-03-01T06:36:12;21.45;;;14.45;;
43606;SDS011;29197;44.788;10.366;2023-03-01T06:39:00;22.38;;;15.00;;
43606;SDS011;29197;44.788;10.366;2023-03-01T06:41:49;21.35;;;14.10;;
43606;SDS011;29197;44.788;10.366;2023-03-01T06:44:41;18.42;;;13.52;;
43606;SDS011;29197;44.788;10.366;2023-03-01T06:47:29;23.17;;;15.82;;
43606;SDS011;29197;44.788;10.366;2023-03-01T06:50:19;23.90;;;16.13;;
43606;SDS011;29197;44.788;10.366;2023-03-01T06:53:08;24.48;;;15.90;;
43606;SDS011;29197;44.788;10.366;2023-03-01T06:55:56;23.03;;;15.47;;
43606;SDS011;29197;44.788;10.366;2023-03-01T06:58:46;21.65;;;14.77;;
43606;SDS011;29197;44.788;10.366;2023-03-01T07:01:36;23.95;;;16.23;;
43606;SDS011;29197;44.788;10.366;2023-03-01T07:04:25;20.85;;;13.82;;
43606;SDS011;29197;44.788;10.366;2023-03-01T07:07:15;21.50;;;14.07;;
43606;SDS011;29197;44.788;10.366;2023-03-01T07:10:05;18.23;;;12.57;;
43606;SDS011;29197;44.788;10.366;2023-03-01T07:12:55;21.73;;;13.73;;
43606;SDS011;29197;44.788;10.366;2023-03-01T07:15:44;16.85;;;12.93;;
43606;SDS011;29197;44.788;10.366;2023-03-01T07:18:34;26.27;;;17.63;;
43606;SDS011;29197;44.788;10.366;2023-03-01T07:21:22;39.10;;;26.45;;
43606;SDS011;29197;44.788;10.366;2023-03-01T07:24:11;42.53;;;27.70;;
43606;SDS011;29197;44.788;10.366;2023-03-01T07:26:59;74.93;;;43.15;;
43606;SDS011;29197;44.788;10.366;2023-03-01T07:29:48;26.33;;;18.83;;
43606;SDS011;29197;44.788;10.366;2023-03-01T07:32:36;28.20;;;18.25;;
43606;SDS011;29197;44.788;10.366;2023-03-01T07:35:26;21.92;;;15.43;;
43606;SDS011;29197;44.788;10.366;2023-03-01T07:38:15;24.77;;;16.80;;
43606;SDS011;29197;44.788;10.366;2023-03-01T07:41:04;22.38;;;15.02;;
43606;SDS011;29197;44.788;10.366;2023-03-01T07:43:52;22.15;;;15.55;;
43606;SDS011;29197;44.788;10.366;2023-03-01T07:46:41;22.90;;;16.02;;
43606;SDS011;29197;44.788;10.366;2023-03-01T07:49:29;20.48;;;14.75;;
43606;SDS011;29197;44.788;10.366;2023-03-01T07:52:19;21.02;;;14.48;;
43606;SDS011;29197;44.788;10.366;2023-03-01T07:55:08;24.17;;;16.58;;
43606;SDS011;29197;44.788;10.366;2023-03-01T07:57:57;23.70;;;15.82;;
43606;SDS011;29197;44.788;10.366;2023-03-01T08:00:45;24.98;;;16.00;;
43606;SDS011;29197;44.788;10.366;2023-03-01T08:03:33;22.25;;;15.18;;
43606;SDS011;29197;44.788;10.366;2023-03-01T08:06:23;24.08;;;15.45;;
43606;SDS011;29197;44.788;10.366;2023-03-01T08:09:12;23.67;;;15.33;;
43606;SDS011;29197;44.788;10.366;2023-03-01T08:12:01;24.38;;;15.43;;
43606;SDS011;29197;44.788;10.366;2023-03-01T08:14:51;24.50;;;15.20;;
43606;SDS011;29197;44.788;10.366;2023-03-01T08:17:39;22.33;;;14.75;;
43606;SDS011;29197;44.788;10.366;2023-03-01T08:20:28;23.70;;;15.48;;
43606;SDS011;29197;44.788;10.366;2023-03-01T08:23:16;27.23;;;16.50;;
43606;SDS011;29197;44.788;10.366;2023-03-01T08:26:07;23.92;;;15.90;;
43606;SDS011;29197;44.788;10.366;2023-03-01T08:28:59;25.33;;;16.92;;
43606;SDS011;29197;44.788;10.366;2023-03-01T08:31:47;25.42;;;15.52;;
43606;SDS011;29197;44.788;10.366;2023-03-01T08:34:36;26.17;;;17.15;;
43606;SDS011;29197;44.788;10.366;2023-03-01T08:37:27;24.57;;;16.23;;
43606;SDS011;29197;44.788;10.366;2023-03-01T08:40:17;26.30;;;16.27;;
43606;SDS011;29197;44.788;10.366;2023-03-01T08:43:07;24.60;;;16.03;;
43606;SDS011;29197;44.788;10.366;2023-03-01T08:45:55;24.08;;;15.43;;
43606;SDS011;29197;44.788;10.366;2023-03-01T08:48:44;25.52;;;16.92;;
43606;SDS011;29197;44.788;10.366;2023-03-01T08:51:33;27.33;;;17.40;;
43606;SDS011;29197;44.788;10.366;2023-03-01T08:54:23;28.88;;;17.52;;
43606;SDS011;29197;44.788;10.366;2023-03-01T08:57:11;28.40;;;18.57;;
43606;SDS011;29197;44.788;10.366;2023-03-01T09:00:02;27.17;;;17.42;;
43606;SDS011;29197;44.788;10.366;2023-03-01T09:02:54;26.05;;;16.95;;
43606;SDS011;29197;44.788;10.366;2023-03-01T09:05:43;26.42;;;16.48;;
43606;SDS011;29197;44.788;10.366;2023-03-01T09:08:34;26.60;;;18.27;;
43606;SDS011;29197;44.788;10.366;2023-03-01T09:11:22;27.50;;;16.90;;
43606;SDS011;29197;44.788;10.366;2023-03-01T09:14:11;23.83;;;15.40;;
43606;SDS011;29197;44.788;10.366;2023-03-01T09:17:01;22.88;;;15.13;;
43606;SDS011;29197;44.788;10.366;2023-03-01T09:19:50;24.83;;;15.55;;
43606;SDS011;29197;44.788;10.366;2023-03-01T09:22:38;25.33;;;16.13;;
43606;SDS011;29197;44.788;10.366;2023-03-01T09:25:27;23.25;;;14.77;;
43606;SDS011;29197;44.788;10.366;2023-03-01T09:28:15;22.65;;;14.85;;
43606;SDS011;29197;44.788;10.366;2023-03-01T09:31:16;23.40;;;14.37;;
43606;SDS011;29197;44.788;10.366;2023-03-01T09:34:07;22.20;;;14.87;;
43606;SDS011;29197;44.788;10.366;2023-03-01T09:36:57;21.88;;;14.63;;
43606;SDS011;29197;44.788;10.366;2023-03-01T09:39:48;25.17;;;14.88;;
43606;SDS011;29197;44.788;10.366;2023-03-01T09:42:37;21.38;;;13.65;;
43606;SDS011;29197;44.788;10.366;2023-03-01T09:45:37;22.52;;;14.93;;
43606;SDS011;29197;44.788;10.366;2023-03-01T09:48:29;23.67;;;14.05;;
43606;SDS011;29197;44.788;10.366;2023-03-01T09:51:26;21.30;;;14.10;;
43606;SDS011;29197;44.788;10.366;2023-03-01T09:54:18;23.38;;;14.32;;
43606;SDS011;29197;44.788;10.366;2023-03-01T09:57:11;18.88;;;12.93;;
43606;SDS011;29197;44.788;10.366;2023-03-01T10:00:17;25.20;;;14.98;;
43606;SDS011;29197;44.788;10.366;2023-03-01T10:03:14;21.63;;;14.68;;
43606;SDS011;29197;44.788;10.366;2023-03-01T10:06:10;21.83;;;14.57;;
43606;SDS011;29197;44.788;10.366;2023-03-01T10:09:20;23.63;;;14.95;;
43606;SDS011;29197;44.788;10.366;2023-03-01T10:12:10;20.45;;;13.43;;
43606;SDS011;29197;44.788;10.366;2023-03-01T10:15:00;21.15;;;14.52;;
43606;SDS011;29197;44.788;10.366;2023-03-01T10:17:55;24.57;;;14.37;;
43606;SDS011;29197;44.788;10.366;2023-03-01T10:20:51;20.35;;;13.82;;
43606;SDS011;29197;44.788;10.366;2023-03-01T10:23:42;20.35;;;13.63;;
43606;SDS011;29197;44.788;10.366;2023-03-01T10:26:36;19.67;;;12.63;;
43606;SDS011;29197;44.788;10.366;2023-03-01T10:29:34;20.27;;;12.50;;
43606;SDS011;29197;44.788;10.366;2023-03-01T10:32:27;21.00;;;13.25;;
43606;SDS011;29197;44.788;10.366;2023-03-01T10:35:16;19.83;;;12.38;;
43606;SDS011;29197;44.788;10.366;2023-03-01T10:38:07;19.42;;;12.45;;
43606;SDS011;29197;44.788;10.366;2023-03-01T10:40:57;20.67;;;12.75;;
43606;SDS011;29197;44.788;10.366;2023-03-01T10:43:50;18.00;;;11.82;;
43606;SDS011;29197;44.788;10.366;2023-03-01T10:46:40;17.17;;;11.65;;
43606;SDS011;29197;44.788;10.366;2023-03-01T10:49:29;18.15;;;11.77;;
43606;SDS011;29197;44.788;10.366;2023-03-01T10:52:18;21.45;;;12.73;;
43606;SDS011;29197;44.788;10.366;2023-03-01T10:55:22;21.90;;;14.63;;
43606;SDS011;29197;44.788;10.366;2023-03-01T10:58:17;21.00;;;12.35;;
43606;SDS011;29197;44.788;10.366;2023-03-01T11:01:24;16.70;;;11.15;;
43606;SDS011;29197;44.788;10.366;2023-03-01T11:04:14;18.92;;;12.10;;
43606;SDS011;29197;44.788;10.366;2023-03-01T11:07:04;17.70;;;11.23;;
43606;SDS011;29197;44.788;10.366;2023-03-01T11:09:52;17.20;;;10.95;;
43606;SDS011;29197;44.788;10.366;2023-03-01T11:12:41;19.88;;;11.55;;
43606;SDS011;29197;44.788;10.366;2023-03-01T11:15:30;18.92;;;11.32;;
43606;SDS011;29197;44.788;10.366;2023-03-01T11:18:20;22.45;;;13.88;;
43606;SDS011;29197;44.788;10.366;2023-03-01T11:21:26;15.70;;;10.60;;
43606;SDS011;29197;44.788;10.366;2023-03-01T11:24:19;15.55;;;10.50;;
43606;SDS011;29197;44.788;10.366;2023-03-01T11:27:15;17.02;;;11.48;;
43606;SDS011;29197;44.788;10.366;2023-03-01T11:30:13;18.52;;;11.23;;
43606;SDS011;29197;44.788;10.366;2023-03-01T11:33:11;18.25;;;11.88;;
43606;SDS011;29197;44.788;10.366;2023-03-01T11:36:07;19.60;;;11.73;;
43606;SDS011;29197;44.788;10.366;2023-03-01T11:39:05;16.20;;;10.95;;
43606;SDS011;29197;44.788;10.366;2023-03-01T11:42:06;18.17;;;12.43;;
43606;SDS011;29197;44.788;10.366;2023-03-01T11:45:06;18.90;;;13.43;;
43606;SDS011;29197;44.788;10.366;2023-03-01T11:48:04;17.13;;;11.85;;
43606;SDS011;29197;44.788;10.366;2023-03-01T11:51:07;20.15;;;13.68;;
43606;SDS011;29197;44.788;10.366;2023-03-01T11:54:13;20.30;;;12.95;;
43606;SDS011;29197;44.788;10.366;2023-03-01T11:57:14;21.08;;;13.32;;
43606;SDS011;29197;44.788;10.366;2023-03-01T12:00:34;21.80;;;12.85;;
43606;SDS011;29197;44.788;10.366;2023-03-01T12:03:33;19.40;;;12.87;;
43606;SDS011;29197;44.788;10.366;2023-03-01T12:10:04;19.67;;;13.93;;
43606;SDS011;29197;44.788;10.366;2023-03-01T12:13:13;22.95;;;14.57;;
43606;SDS011;29197;44.788;10.366;2023-03-01T12:16:30;20.35;;;13.98;;
43606;SDS011;29197;44.788;10.366;2023-03-01T12:19:38;23.60;;;14.90;;
43606;SDS011;29197;44.788;10.366;2023-03-01T12:22:43;22.17;;;15.45;;
43606;SDS011;29197;44.788;10.366;2023-03-01T12:25:41;26.58;;;17.05;;
43606;SDS011;29197;44.788;10.366;2023-03-01T12:28:48;25.08;;;14.80;;
43606;SDS011;29197;44.788;10.366;2023-03-01T12:35:02;23.80;;;16.45;;
43606;SDS011;29197;44.788;10.366;2023-03-01T12:38:18;22.52;;;15.05;;
43606;SDS011;29197;44.788;10.366;2023-03-01T12:44:37;25.65;;;16.65;;
43606;SDS011;29197;44.788;10.366;2023-03-01T12:47:45;24.45;;;15.68;;
43606;SDS011;29197;44.788;10.366;2023-03-01T12:50:47;24.42;;;15.95;;
43606;SDS011;29197;44.788;10.366;2023-03-01T12:53:41;25.38;;;16.55;;
43606;SDS011;29197;44.788;10.366;2023-03-01T12:56:34;26.67;;;16.55;;
43606;SDS011;29197;44.788;10.366;2023-03-01T12:59:28;24.25;;;14.98;;
43606;SDS011;29197;44.788;10.366;2023-03-01T13:02:23;23.27;;;15.17;;
43606;SDS011;29197;44.788;10.366;2023-03-01T13:05:19;25.77;;;16.65;;
43606;SDS011;29197;44.788;10.366;2023-03-01T13:08:19;26.00;;;15.82;;
43606;SDS011;29197;44.788;10.366;2023-03-01T13:11:17;25.00;;;16.40;;
43606;SDS011;29197;44.788;10.366;2023-03-01T13:17:39;30.20;;;18.83;;
43606;SDS011;29197;44.788;10.366;2023-03-01T13:20:32;29.58;;;17.27;;
43606;SDS011;29197;44.788;10.366;2023-03-01T13:23:26;25.65;;;16.73;;
43606;SDS011;29197;44.788;10.366;2023-03-01T13:26:18;24.25;;;15.32;;
43606;SDS011;29197;44.788;10.366;2023-03-01T13:29:11;25.52;;;16.80;;
43606;SDS011;29197;44.788;10.366;2023-03-01T13:32:20;27.55;;;17.90;;
43606;SDS011;29197;44.788;10.366;2023-03-01T13:35:42;26.63;;;16.83;;
43606;SDS011;29197;44.788;10.366;2023-03-01T13:38:45;25.05;;;16.23;;
43606;SDS011;29197;44.788;10.366;2023-03-01T13:41:52;25.75;;;16.88;;
43606;SDS011;29197;44.788;10.366;2023-03-01T13:44:44;26.55;;;16.67;;
43606;SDS011;29197;44.788;10.366;2023-03-01T13:47:32;22.95;;;15.52;;
43606;SDS011;29197;44.788;10.366;2023-03-01T13:50:24;22.80;;;15.27;;
43606;SDS011;29197;44.788;10.366;2023-03-01T13:53:16;25.17;;;16.33;;
43606;SDS011;29197;44.788;10.366;2023-03-01T13:56:08;22.60;;;15.52;;
43606;SDS011;29197;44.788;10.366;2023-03-01T13:59:01;25.83;;;15.98;;
43606;SDS011;29197;44.788;10.366;2023-03-01T14:01:52;66.00;;;35.42;;
43606;SDS011;29197;44.788;10.366;2023-03-01T14:04:42;43.83;;;25.95;;
43606;SDS011;29197;44.788;10.366;2023-03-01T14:07:30;37.35;;;22.33;;
43606;SDS011;29197;44.788;10.366;2023-03-01T14:10:19;29.73;;;17.73;;
43606;SDS011;29197;44.788;10.366;2023-03-01T14:13:10;27.73;;;18.00;;
43606;SDS011;29197;44.788;10.366;2023-03-01T14:16:18;32.42;;;19.77;;
43606;SDS011;29197;44.788;10.366;2023-03-01T14:19:19;27.70;;;18.67;;
43606;SDS011;29197;44.788;10.366;2023-03-01T14:22:20;25.88;;;16.75;;
43606;SDS011;29197;44.788;10.366;2023-03-01T14:25:17;27.87;;;18.83;;
43606;SDS011;29197;44.788;10.366;2023-03-01T14:28:14;33.35;;;21.25;;
43606;SDS011;29197;44.788;10.366;2023-03-01T14:34:32;26.55;;;16.98;;
43606;SDS011;29197;44.788;10.366;2023-03-01T14:37:22;25.87;;;16.13;;
43606;SDS011;29197;44.788;10.366;2023-03-01T14:40:19;31.07;;;18.07;;
43606;SDS011;29197;44.788;10.366;2023-03-01T14:43:21;32.00;;;19.45;;
43606;SDS011;29197;44.788;10.366;2023-03-01T14:46:21;28.27;;;17.30;;
43606;SDS011;29197;44.788;10.366;2023-03-01T14:49:17;26.38;;;17.05;;
43606;SDS011;29197;44.788;10.366;2023-03-01T14:52:18;29.10;;;19.63;;
43606;SDS011;29197;44.788;10.366;2023-03-01T14:55:13;25.58;;;17.45;;
43606;SDS011;29197;44.788;10.366;2023-03-01T14:58:05;28.52;;;18.48;;
43606;SDS011;29197;44.788;10.366;2023-03-01T15:01:00;25.00;;;16.08;;
43606;SDS011;29197;44.788;10.366;2023-03-01T15:03:50;24.05;;;16.17;;
43606;SDS011;29197;44.788;10.366;2023-03-01T15:06:41;32.78;;;20.67;;
43606;SDS011;29197;44.788;10.366;2023-03-01T15:09:29;30.40;;;19.70;;
43606;SDS011;29197;44.788;10.366;2023-03-01T15:12:36;24.55;;;15.77;;
43606;SDS011;29197;44.788;10.366;2023-03-01T15:15:31;28.58;;;18.17;;
43606;SDS011;29197;44.788;10.366;2023-03-01T15:18:22;25.48;;;16.30;;
43606;SDS011;29197;44.788;10.366;2023-03-01T15:21:18;23.92;;;16.33;;
43606;SDS011;29197;44.788;10.366;2023-03-01T15:24:17;27.77;;;18.70;;
43606;SDS011;29197;44.788;10.366;2023-03-01T15:27:12;25.50;;;16.33;;
43606;SDS011;29197;44.788;10.366;2023-03-01T15:30:05;24.73;;;16.47;;
43606;SDS011;29197;44.788;10.366;2023-03-01T15:36:31;24.80;;;16.43;;
43606;SDS011;29197;44.788;10.366;2023-03-01T15:39:35;26.43;;;16.97;;
43606;SDS011;29197;44.788;10.366;2023-03-01T15:42:36;26.88;;;17.60;;
43606;SDS011;29197;44.788;10.366;2023-03-01T15:45:26;23.55;;;16.17;;
43606;SDS011;29197;44.788;10.366;2023-03-01T15:48:17;26.03;;;17.37;;
43606;SDS011;29197;44.788;10.366;2023-03-01T15:51:09;27.42;;;17.23;;
43606;SDS011;29197;44.788;10.366;2023-03-01T15:54:03;24.73;;;16.23;;
43606;SDS011;29197;44.788;10.366;2023-03-01T15:56:55;24.23;;;16.23;;
43606;SDS011;29197;44.788;10.366;2023-03-01T15:59:44;32.15;;;17.85;;
43606;SDS011;29197;44.788;10.366;2023-03-01T16:02:32;24.75;;;16.02;;
43606;SDS011;29197;44.788;10.366;2023-03-01T16:05:22;24.38;;;16.80;;
43606;SDS011;29197;44.788;10.366;2023-03-01T16:08:12;24.48;;;16.35;;
43606;SDS011;29197;44.788;10.366;2023-03-01T16:11:00;23.15;;;16.13;;
43606;SDS011;29197;44.788;10.366;2023-03-01T16:13:52;24.23;;;16.33;;
43606;SDS011;29197;44.788;10.366;2023-03-01T16:16:41;25.08;;;16.40;;
43606;SDS011;29197;44.788;10.366;2023-03-01T16:19:30;27.27;;;17.50;;
43606;SDS011;29197;44.788;10.366;2023-03-01T16:22:19;29.05;;;18.70;;
43606;SDS011;29197;44.788;10.366;2023-03-01T16:25:12;36.03;;;25.43;;
43606;SDS011;29197;44.788;10.366;2023-03-01T16:28:02;29.45;;;20.33;;
43606;SDS011;29197;44.788;10.366;2023-03-01T16:30:57;29.98;;;19.83;;
43606;SDS011;29197;44.788;10.366;2023-03-01T16:33:48;38.05;;;24.10;;
43606;SDS011;29197;44.788;10.366;2023-03-01T16:36:39;33.95;;;21.05;;
43606;SDS011;29197;44.788;10.366;2023-03-01T16:39:27;27.57;;;18.43;;
43606;SDS011;29197;44.788;10.366;2023-03-01T16:42:16;29.90;;;19.80;;
43606;SDS011;29197;44.788;10.366;2023-03-01T16:45:06;27.20;;;17.58;;
43606;SDS011;29197;44.788;10.366;2023-03-01T16:48:11;25.67;;;17.48;;
43606;SDS011;29197;44.788;10.366;2023-03-01T16:51:00;44.15;;;24.92;;
43606;SDS011;29197;44.788;10.366;2023-03-01T16:53:49;49.03;;;30.63;;
43606;SDS011;29197;44.788;10.366;2023-03-01T16:56:38;31.92;;;19.85;;